sensor_id;sensor_type;location;lat;lon;timestamp;pressure;altitude;pressure_sealevel;temperature;humidity
57948;BME280;43754;56.992;24.292;2023-02-17T00:02:05;101406.75;;;1.64;100.00
57948;BME280;43754;56.992;24.292;2023-02-17T00:04:37;101392.06;;;1.60;100.00
57948;BME280;43754;56.992;24.292;2023-02-17T00:07:09;101393.00;;;1.59;100.00
57948;BME280;43754;56.992;24.292;2023-02-17T00:09:43;101393.00;;;1.59;100.00
57948;BME280;43754;56.992;24.292;2023-02-17T00:12:15;101384.75;;;1.63;100.00
57948;BME280;43754;56.992;24.292;2023-02-17T00:14:47;101384.97;;;1.60;100.00
57948;BME280;43754;56.992;24.292;2023-02-17T00:17:20;101379.69;;;1.60;100.00
57948;BME280;43754;56.992;24.292;2023-02-17T00:19:53;101378.84;;;1.60;100.00
57948;BME280;43754;56.992;24.292;2023-02-17T00:22:25;101368.81;;;1.52;100.00
57948;BME280;43754;56.992;24.292;2023-02-17T00:24:58;101367.88;;;1.53;100.00
57948;BME280;43754;56.992;24.292;2023-02-17T00:27:30;101371.25;;;1.55;100.00
57948;BME280;43754;56.992;24.292;2023-02-17T00:30:03;101365.94;;;1.55;100.00
57948;BME280;43754;56.992;24.292;2023-02-17T00:32:35;101369.44;;;1.56;100.00
57948;BME280;43754;56.992;24.292;2023-02-17T00:35:07;101370.19;;;1.58;100.00
57948;BME280;43754;56.992;24.292;2023-02-17T00:37:39;101374.63;;;1.57;100.00
57948;BME280;43754;56.992;24.292;2023-02-17T00:40:13;101366.59;;;1.59;100.00
57948;BME280;43754;56.992;24.292;2023-02-17T00:42:45;101368.09;;;1.63;100.00
57948;BME280;43754;56.992;24.292;2023-02-17T00:45:19;101358.66;;;1.59;100.00
57948;BME280;43754;56.992;24.292;2023-02-17T00:47:52;101361.97;;;1.62;100.00
57948;BME280;43754;56.992;24.292;2023-02-17T00:50:23;101356.88;;;1.59;100.00
57948;BME280;43754;56.992;24.292;2023-02-17T00:52:55;101360.47;;;1.58;100.00
57948;BME280;43754;56.992;24.292;2023-02-17T00:55:29;101355.59;;;1.52;100.00
57948;BME280;43754;56.992;24.292;2023-02-17T00:58:01;101345.03;;;1.52;100.00
57948;BME280;43754;56.992;24.292;2023-02-17T01:00:33;101344.19;;;1.52;100.00
57948;BME280;43754;56.992;24.292;2023-02-17T01:03:05;101350.09;;;1.55;100.00
57948;BME280;43754;56.992;24.292;2023-02-17T01:05:39;101343.16;;;1.54;100.00
57948;BME280;43754;56.992;24.292;2023-02-17T01:08:12;101346.53;;;1.56;100.00
57948;BME280;43754;56.992;24.292;2023-02-17T01:10:47;101340.59;;;1.53;100.00
57948;BME280;43754;56.992;24.292;2023-02-17T01:13:20;101338.06;;;1.51;100.00
57948;BME280;43754;56.992;24.292;2023-02-17T01:15:52;101341.69;;;1.50;100.00
57948;BME280;43754;56.992;24.292;2023-02-17T01:18:24;101333.63;;;1.52;100.00
57948;BME280;43754;56.992;24.292;2023-02-17T01:20:56;101332.78;;;1.51;100.00
57948;BME280;43754;56.992;24.292;2023-02-17T01:23:29;101333.84;;;1.49;100.00
57948;BME280;43754;56.992;24.292;2023-02-17T01:26:02;101334.69;;;1.49;100.00
57948;BME280;43754;56.992;24.292;2023-02-17T01:28:34;101320.31;;;1.53;100.00
57948;BME280;43754;56.992;24.292;2023-02-17T01:31:08;101314.72;;;1.58;100.00
57948;BME280;43754;56.992;24.292;2023-02-17T01:33:41;101326.22;;;1.57;100.00
57948;BME280;43754;56.992;24.292;2023-02-17T01:36:16;101319.25;;;1.56;100.00
57948;BME280;43754;56.992;24.292;2023-02-17T01:38:49;101322.03;;;1.54;100.00
57948;BME280;43754;56.992;24.292;2023-02-17T01:41:25;101319.88;;;1.59;100.00
57948;BME280;43754;56.992;24.292;2023-02-17T01:44:05;101319.16;;;1.57;100.00
57948;BME280;43754;56.992;24.292;2023-02-17T01:46:38;101319.88;;;1.59;100.00
57948;BME280;43754;56.992;24.292;2023-02-17T01:49:27;101323.28;;;1.61;100.00
57948;BME280;43754;56.992;24.292;2023-02-17T01:52:05;101320.31;;;1.53;100.00
57948;BME280;43754;56.992;24.292;2023-02-17T01:54:41;101322.34;;;1.50;100.00
57948;BME280;43754;56.992;24.292;2023-02-17T01:57:18;101325.06;;;1.48;100.00
57948;BME280;43754;56.992;24.292;2023-02-17T01:59:53;101310.78;;;1.51;100.00
57948;BME280;43754;56.992;24.292;2023-02-17T02:02:25;101308.91;;;1.53;100.00
57948;BME280;43754;56.992;24.292;2023-02-17T02:05:01;101310.47;;;1.55;100.00
57948;BME280;43754;56.992;24.292;2023-02-17T02:07:38;101303.31;;;1.57;100.00
57948;BME280;43754;56.992;24.292;2023-02-17T02:10:13;101296.53;;;1.53;100.00
57948;BME280;43754;56.992;24.292;2023-02-17T02:12:46;101302.56;;;1.55;100.00
57948;BME280;43754;56.992;24.292;2023-02-17T02:15:21;101302.34;;;1.58;100.00
57948;BME280;43754;56.992;24.292;2023-02-17T02:18:12;101297.69;;;1.62;100.00
57948;BME280;43754;56.992;24.292;2023-02-17T02:21:07;101297.88;;;1.59;100.00
57948;BME280;43754;56.992;24.292;2023-02-17T02:23:55;101295.69;;;1.53;100.00
57948;BME280;43754;56.992;24.292;2023-02-17T02:30:04;101294.22;;;1.49;100.00
57948;BME280;43754;56.992;24.292;2023-02-17T02:32:48;101292.44;;;1.49;100.00
57948;BME280;43754;56.992;24.292;2023-02-17T02:35:30;101288.94;;;1.49;100.00
57948;BME280;43754;56.992;24.292;2023-02-17T02:38:11;101288.63;;;1.53;100.00
57948;BME280;43754;56.992;24.292;2023-02-17T02:40:47;101276.66;;;1.60;100.00
57948;BME280;43754;56.992;24.292;2023-02-17T02:43:21;101275.63;;;1.63;100.00
57948;BME280;43754;56.992;24.292;2023-02-17T02:45:54;101273.78;;;1.63;100.00
57948;BME280;43754;56.992;24.292;2023-02-17T02:48:29;101261.75;;;1.59;100.00
57948;BME280;43754;56.992;24.292;2023-02-17T02:51:29;101268.72;;;1.60;100.00
57948;BME280;43754;56.992;24.292;2023-02-17T02:54:15;101263.53;;;1.59;100.00
57948;BME280;43754;56.992;24.292;2023-02-17T02:57:01;101263.44;;;1.60;100.00
57948;BME280;43754;56.992;24.292;2023-02-17T02:59:43;101267.56;;;1.64;100.00
57948;BME280;43754;56.992;24.292;2023-02-17T03:02:23;101254.34;;;1.64;100.00
57948;BME280;43754;56.992;24.292;2023-02-17T03:05:04;101262.28;;;1.64;100.00
57948;BME280;43754;56.992;24.292;2023-02-17T03:07:46;101257.00;;;1.64;100.00
57948;BME280;43754;56.992;24.292;2023-02-17T03:10:20;101253.41;;;1.65;100.00
57948;BME280;43754;56.992;24.292;2023-02-17T03:12:52;101254.34;;;1.64;100.00
57948;BME280;43754;56.992;24.292;2023-02-17T03:15:27;101258.59;;;1.67;100.00
57948;BME280;43754;56.992;24.292;2023-02-17T03:18:01;101265.03;;;1.63;100.00
57948;BME280;43754;56.992;24.292;2023-02-17T03:20:37;101272.59;;;1.67;100.00
57948;BME280;43754;56.992;24.292;2023-02-17T03:23:10;101272.28;;;1.72;100.00
57948;BME280;43754;56.992;24.292;2023-02-17T03:25:43;101265.94;;;1.74;100.00
57948;BME280;43754;56.992;24.292;2023-02-17T03:28:16;101262.13;;;1.78;100.00
57948;BME280;43754;56.992;24.292;2023-02-17T03:30:50;101266.56;;;1.78;100.00
57948;BME280;43754;56.992;24.292;2023-02-17T03:33:22;101270.06;;;1.78;100.00
57948;BME280;43754;56.992;24.292;2023-02-17T03:35:57;101272.09;;;1.75;100.00
57948;BME280;43754;56.992;24.292;2023-02-17T03:38:29;101272.09;;;1.75;100.00
57948;BME280;43754;56.992;24.292;2023-02-17T03:41:01;101266.06;;;1.73;100.00
57948;BME280;43754;56.992;24.292;2023-02-17T03:43:33;101257.78;;;1.77;100.00
57948;BME280;43754;56.992;24.292;2023-02-17T03:46:09;101256.09;;;1.76;100.00
57948;BME280;43754;56.992;24.292;2023-02-17T03:48:42;101251.66;;;1.77;100.00
57948;BME280;43754;56.992;24.292;2023-02-17T03:51:18;101244.69;;;1.76;100.00
57948;BME280;43754;56.992;24.292;2023-02-17T03:53:51;101249.63;;;1.80;100.00
57948;BME280;43754;56.992;24.292;2023-02-17T03:56:23;101251.34;;;1.81;100.00
57948;BME280;43754;56.992;24.292;2023-02-17T03:58:55;101245.81;;;1.84;100.00
57948;BME280;43754;56.992;24.292;2023-02-17T04:01:27;101245.81;;;1.84;100.00
57948;BME280;43754;56.992;24.292;2023-02-17T04:03:59;101252.78;;;1.85;100.00
57948;BME280;43754;56.992;24.292;2023-02-17T04:06:33;101235.38;;;1.83;100.00
57948;BME280;43754;56.992;24.292;2023-02-17T04:09:05;101231.97;;;1.81;100.00
57948;BME280;43754;56.992;24.292;2023-02-17T04:11:37;101233.91;;;1.79;100.00
57948;BME280;43754;56.992;24.292;2023-02-17T04:14:10;101238.97;;;1.82;100.00
57948;BME280;43754;56.992;24.292;2023-02-17T04:16:42;101238.00;;;1.83;100.00
57948;BME280;43754;56.992;24.292;2023-02-17T04:19:14;101224.06;;;1.81;100.00
57948;BME280;43754;56.992;24.292;2023-02-17T04:21:47;101229.34;;;1.81;100.00
57948;BME280;43754;56.992;24.292;2023-02-17T04:24:19;101222.34;;;1.80;100.00
57948;BME280;43754;56.992;24.292;2023-02-17T04:26:52;101230.19;;;1.81;100.00
57948;BME280;43754;56.992;24.292;2023-02-17T04:29:24;101244.97;;;1.84;100.00
57948;BME280;43754;56.992;24.292;2023-02-17T04:31:56;101242.13;;;1.87;100.00
57948;BME280;43754;56.992;24.292;2023-02-17T04:34:28;101242.72;;;1.91;100.00
57948;BME280;43754;56.992;24.292;2023-02-17T04:37:01;101242.00;;;1.89;100.00
57948;BME280;43754;56.992;24.292;2023-02-17T04:39:34;101236.50;;;1.92;100.00
57948;BME280;43754;56.992;24.292;2023-02-17T04:42:06;101229.28;;;1.94;100.00
57948;BME280;43754;56.992;24.292;2023-02-17T04:44:37;101233.00;;;1.91;100.00
57948;BME280;43754;56.992;24.292;2023-02-17T04:47:10;101228.06;;;1.87;100.00
57948;BME280;43754;56.992;24.292;2023-02-17T04:49:42;101228.16;;;1.85;100.00
57948;BME280;43754;56.992;24.292;2023-02-17T04:52:15;101225.50;;;1.85;100.00
57948;BME280;43754;56.992;24.292;2023-02-17T04:54:47;101232.16;;;1.91;100.00
57948;BME280;43754;56.992;24.292;2023-02-17T04:57:19;101224.81;;;1.83;100.00
57948;BME280;43754;56.992;24.292;2023-02-17T04:59:51;101230.69;;;1.87;100.00
57948;BME280;43754;56.992;24.292;2023-02-17T05:02:23;101222.78;;;1.87;100.00
57948;BME280;43754;56.992;24.292;2023-02-17T05:04:57;101214.84;;;1.87;100.00
57948;BME280;43754;56.992;24.292;2023-02-17T05:07:31;101211.97;;;1.90;100.00
57948;BME280;43754;56.992;24.292;2023-02-17T05:10:03;101211.25;;;1.88;100.00
57948;BME280;43754;56.992;24.292;2023-02-17T05:12:35;101213.16;;;1.85;100.00
57948;BME280;43754;56.992;24.292;2023-02-17T05:15:07;101216.63;;;1.86;100.00
57948;BME280;43754;56.992;24.292;2023-02-17T05:17:40;101213.03;;;1.87;100.00
57948;BME280;43754;56.992;24.292;2023-02-17T05:20:12;101213.03;;;1.87;100.00
57948;BME280;43754;56.992;24.292;2023-02-17T05:22:45;101217.50;;;1.87;100.00
57948;BME280;43754;56.992;24.292;2023-02-17T05:25:17;101214.84;;;1.87;100.00
57948;BME280;43754;56.992;24.292;2023-02-17T05:27:49;101218.94;;;1.91;100.00
57948;BME280;43754;56.992;24.292;2023-02-17T05:30:22;101219.78;;;1.91;100.00
57948;BME280;43754;56.992;24.292;2023-02-17T05:32:54;101228.34;;;1.95;100.00
57948;BME280;43754;56.992;24.292;2023-02-17T05:35:27;101229.06;;;1.97;100.00
57948;BME280;43754;56.992;24.292;2023-02-17T05:38:00;101220.31;;;1.96;100.00
57948;BME280;43754;56.992;24.292;2023-02-17T05:40:32;101222.09;;;1.96;100.00
57948;BME280;43754;56.992;24.292;2023-02-17T05:43:04;101221.88;;;1.99;100.00
57948;BME280;43754;56.992;24.292;2023-02-17T05:45:36;101219.13;;;2.00;100.00
57948;BME280;43754;56.992;24.292;2023-02-17T05:48:08;101228.84;;;2.00;100.00
57948;BME280;43754;56.992;24.292;2023-02-17T05:50:40;101228.84;;;2.00;100.00
57948;BME280;43754;56.992;24.292;2023-02-17T05:53:13;101223.75;;;1.97;100.00
57948;BME280;43754;56.992;24.292;2023-02-17T05:55:45;101215.50;;;2.01;100.00
57948;BME280;43754;56.992;24.292;2023-02-17T05:58:19;101221.53;;;2.03;100.00
57948;BME280;43754;56.992;24.292;2023-02-17T06:00:51;101214.88;;;1.98;100.00
57948;BME280;43754;56.992;24.292;2023-02-17T06:03:23;101207.69;;;2.00;100.00
57948;BME280;43754;56.992;24.292;2023-02-17T06:05:55;101211.28;;;1.99;100.00
57948;BME280;43754;56.992;24.292;2023-02-17T06:08:28;101208.03;;;1.95;100.00
57948;BME280;43754;56.992;24.292;2023-02-17T06:11:00;101200.09;;;1.95;100.00
57948;BME280;43754;56.992;24.292;2023-02-17T06:13:32;101210.34;;;2.00;100.00
57948;BME280;43754;56.992;24.292;2023-02-17T06:16:05;101200.72;;;1.99;100.00
57948;BME280;43754;56.992;24.292;2023-02-17T06:18:37;101203.88;;;2.04;100.00
57948;BME280;43754;56.992;24.292;2023-02-17T06:21:09;101207.38;;;2.04;100.00
57948;BME280;43754;56.992;24.292;2023-02-17T06:23:42;101200.03;;;2.08;100.00
57948;BME280;43754;56.992;24.292;2023-02-17T06:26:14;101200.25;;;2.05;100.00
57948;BME280;43754;56.992;24.292;2023-02-17T06:28:48;101192.44;;;2.03;100.00
57948;BME280;43754;56.992;24.292;2023-02-17T06:31:20;101197.41;;;2.08;100.00
57948;BME280;43754;56.992;24.292;2023-02-17T06:33:52;101192.81;;;2.10;100.00
57948;BME280;43754;56.992;24.292;2023-02-17T06:36:24;101196.22;;;2.12;100.00
57948;BME280;43754;56.992;24.292;2023-02-17T06:38:57;101194.41;;;2.12;100.00
57948;BME280;43754;56.992;24.292;2023-02-17T06:41:29;101195.13;;;2.14;100.00
57948;BME280;43754;56.992;24.292;2023-02-17T06:44:01;101200.19;;;2.17;100.00
57948;BME280;43754;56.992;24.292;2023-02-17T06:46:33;101193.94;;;2.18;100.00
57948;BME280;43754;56.992;24.292;2023-02-17T06:49:05;101189.59;;;2.17;100.00
57948;BME280;43754;56.992;24.292;2023-02-17T06:51:37;101202.38;;;2.23;100.00
57948;BME280;43754;56.992;24.292;2023-02-17T06:54:11;101198.66;;;2.26;100.00
57948;BME280;43754;56.992;24.292;2023-02-17T06:56:43;101205.53;;;2.28;100.00
57948;BME280;43754;56.992;24.292;2023-02-17T06:59:15;101192.06;;;2.31;100.00
57948;BME280;43754;56.992;24.292;2023-02-17T07:01:47;101196.41;;;2.33;100.00
57948;BME280;43754;56.992;24.292;2023-02-17T07:04:21;101196.06;;;2.37;100.00
57948;BME280;43754;56.992;24.292;2023-02-17T07:06:53;101198.56;;;2.39;100.00
57948;BME280;43754;56.992;24.292;2023-02-17T07:09:26;101194.84;;;2.41;100.00
57948;BME280;43754;56.992;24.292;2023-02-17T07:11:58;101194.63;;;2.44;100.00
57948;BME280;43754;56.992;24.292;2023-02-17T07:14:31;101192.72;;;2.46;100.00
57948;BME280;43754;56.992;24.292;2023-02-17T07:17:03;101194.16;;;2.50;100.00
57948;BME280;43754;56.992;24.292;2023-02-17T07:19:35;101196.81;;;2.50;100.00
57948;BME280;43754;56.992;24.292;2023-02-17T07:22:07;101187.03;;;2.51;100.00
57948;BME280;43754;56.992;24.292;2023-02-17T07:24:41;101192.22;;;2.52;100.00
57948;BME280;43754;56.992;24.292;2023-02-17T07:27:13;101191.28;;;2.53;100.00
57948;BME280;43754;56.992;24.292;2023-02-17T07:29:45;101198.00;;;2.57;100.00
57948;BME280;43754;56.992;24.292;2023-02-17T07:32:17;101194.41;;;2.58;100.00
57948;BME280;43754;56.992;24.292;2023-02-17T07:34:49;101186.22;;;2.61;100.00
57948;BME280;43754;56.992;24.292;2023-02-17T07:37:21;101181.78;;;2.62;100.00
57948;BME280;43754;56.992;24.292;2023-02-17T07:39:54;101188.63;;;2.64;100.00
57948;BME280;43754;56.992;24.292;2023-02-17T07:42:28;101186.59;;;2.68;100.00
57948;BME280;43754;56.992;24.292;2023-02-17T07:45:00;101185.63;;;2.69;100.00
57948;BME280;43754;56.992;24.292;2023-02-17T07:47:32;101182.28;;;2.67;100.00
57948;BME280;43754;56.992;24.292;2023-02-17T07:50:05;101169.16;;;2.65;100.00
57948;BME280;43754;56.992;24.292;2023-02-17T07:52:37;101177.09;;;2.65;100.00
57948;BME280;43754;56.992;24.292;2023-02-17T07:55:10;101184.19;;;2.65;100.00
57948;BME280;43754;56.992;24.292;2023-02-17T07:57:42;101182.28;;;2.67;100.00
57948;BME280;43754;56.992;24.292;2023-02-17T08:00:15;101177.94;;;2.66;100.00
57948;BME280;43754;56.992;24.292;2023-02-17T08:02:48;101182.88;;;2.70;100.00
57948;BME280;43754;56.992;24.292;2023-02-17T08:05:20;101180.09;;;2.72;100.00
57948;BME280;43754;56.992;24.292;2023-02-17T08:07:52;101189.38;;;2.66;100.00
57948;BME280;43754;56.992;24.292;2023-02-17T08:10:45;101186.72;;;2.66;100.00
57948;BME280;43754;56.992;24.292;2023-02-17T08:13:36;101189.13;;;2.69;100.00
57948;BME280;43754;56.992;24.292;2023-02-17T08:16:08;101183.72;;;2.71;100.00
57948;BME280;43754;56.992;24.292;2023-02-17T08:18:40;101195.88;;;2.62;100.00
57948;BME280;43754;56.992;24.292;2023-02-17T08:21:12;101193.81;;;2.66;100.00
57948;BME280;43754;56.992;24.292;2023-02-17T08:23:44;101186.47;;;2.69;100.00
57948;BME280;43754;56.992;24.292;2023-02-17T08:26:18;101186.47;;;2.69;100.00
57948;BME280;43754;56.992;24.292;2023-02-17T08:28:51;101186.47;;;2.69;100.00
57948;BME280;43754;56.992;24.292;2023-02-17T08:31:25;101191.78;;;2.69;100.00
57948;BME280;43754;56.992;24.292;2023-02-17T08:33:59;101177.34;;;2.73;100.00
57948;BME280;43754;56.992;24.292;2023-02-17T08:36:32;101171.59;;;2.80;100.00
57948;BME280;43754;56.992;24.292;2023-02-17T08:39:06;101170.59;;;2.81;100.00
57948;BME280;43754;56.992;24.292;2023-02-17T08:41:42;101161.81;;;2.80;100.00
57948;BME280;43754;56.992;24.292;2023-02-17T08:44:16;101158.81;;;2.85;100.00
57948;BME280;43754;56.992;24.292;2023-02-17T08:46:50;101155.22;;;2.86;100.00
57948;BME280;43754;56.992;24.292;2023-02-17T08:49:24;101150.50;;;2.89;100.00
57948;BME280;43754;56.992;24.292;2023-02-17T08:51:57;101141.47;;;2.81;100.00
57948;BME280;43754;56.992;24.292;2023-02-17T08:54:30;101139.69;;;2.81;100.00
57948;BME280;43754;56.992;24.292;2023-02-17T08:57:03;101140.28;;;2.85;100.00
57948;BME280;43754;56.992;24.292;2023-02-17T08:59:35;101142.09;;;2.84;100.00
57948;BME280;43754;56.992;24.292;2023-02-17T09:02:09;101134.88;;;2.86;100.00
57948;BME280;43754;56.992;24.292;2023-02-17T09:04:41;101127.63;;;2.88;100.00
57948;BME280;43754;56.992;24.292;2023-02-17T09:07:14;101127.16;;;2.94;100.00
57948;BME280;43754;56.992;24.292;2023-02-17T09:09:47;101124.41;;;2.96;100.00
57948;BME280;43754;56.992;24.292;2023-02-17T09:12:20;101115.47;;;2.97;100.00
57948;BME280;43754;56.992;24.292;2023-02-17T09:14:53;101113.19;;;3.03;100.00
57948;BME280;43754;56.992;24.292;2023-02-17T09:17:25;101117.75;;;3.01;100.00
57948;BME280;43754;56.992;24.292;2023-02-17T09:19:57;101113.06;;;3.05;100.00
57948;BME280;43754;56.992;24.292;2023-02-17T09:22:28;101112.47;;;3.01;100.00
57948;BME280;43754;56.992;24.292;2023-02-17T09:25:03;101110.56;;;3.03;100.00
57948;BME280;43754;56.992;24.292;2023-02-17T09:27:37;101106.22;;;3.02;100.00
57948;BME280;43754;56.992;24.292;2023-02-17T09:30:10;101103.94;;;3.09;100.00
57948;BME280;43754;56.992;24.292;2023-02-17T09:32:43;101099.09;;;3.14;100.00
57948;BME280;43754;56.992;24.292;2023-02-17T09:35:16;101099.22;;;3.12;100.00
57948;BME280;43754;56.992;24.292;2023-02-17T09:37:48;101098.00;;;3.16;100.00
57948;BME280;43754;56.992;24.292;2023-02-17T09:40:24;101095.00;;;3.21;100.00
57948;BME280;43754;56.992;24.292;2023-02-17T09:43:00;101092.78;;;3.26;100.00
57948;BME280;43754;56.992;24.292;2023-02-17T09:45:34;101081.50;;;3.24;100.00
57948;BME280;43754;56.992;24.292;2023-02-17T09:48:09;101079.59;;;3.15;100.00
57948;BME280;43754;56.992;24.292;2023-02-17T09:50:48;101083.41;;;3.22;100.00
57948;BME280;43754;56.992;24.292;2023-02-17T09:53:26;101070.44;;;3.19;100.00
57948;BME280;43754;56.992;24.292;2023-02-17T09:56:03;101062.84;;;3.26;100.00
57948;BME280;43754;56.992;24.292;2023-02-17T09:58:40;101069.22;;;3.23;100.00
57948;BME280;43754;56.992;24.292;2023-02-17T10:01:17;101067.66;;;3.20;100.00
57948;BME280;43754;56.992;24.292;2023-02-17T10:03:53;101065.84;;;3.21;100.00
57948;BME280;43754;56.992;24.292;2023-02-17T10:06:30;101053.56;;;3.20;100.00
57948;BME280;43754;56.992;24.292;2023-02-17T10:09:06;101053.69;;;3.30;100.00
57948;BME280;43754;56.992;24.292;2023-02-17T10:11:45;101049.19;;;3.30;100.00
57948;BME280;43754;56.992;24.292;2023-02-17T10:14:21;101036.56;;;3.34;100.00
57948;BME280;43754;56.992;24.292;2023-02-17T10:17:00;101039.78;;;3.37;100.00
57948;BME280;43754;56.992;24.292;2023-02-17T10:19:38;101046.06;;;3.36;100.00
57948;BME280;43754;56.992;24.292;2023-02-17T10:22:15;101035.06;;;3.41;100.00
57948;BME280;43754;56.992;24.292;2023-02-17T10:24:48;101038.44;;;3.43;100.00
57948;BME280;43754;56.992;24.292;2023-02-17T10:27:29;101030.75;;;3.40;100.00
57948;BME280;43754;56.992;24.292;2023-02-17T10:30:22;101026.75;;;3.45;100.00
57948;BME280;43754;56.992;24.292;2023-02-17T10:32:59;101034.50;;;3.37;100.00
57948;BME280;43754;56.992;24.292;2023-02-17T10:35:47;101030.75;;;3.40;100.00
57948;BME280;43754;56.992;24.292;2023-02-17T10:38:32;101026.78;;;3.34;100.00
57948;BME280;43754;56.992;24.292;2023-02-17T10:41:11;101023.75;;;3.39;100.00
57948;BME280;43754;56.992;24.292;2023-02-17T10:43:46;101014.47;;;3.44;100.00
57948;BME280;43754;56.992;24.292;2023-02-17T10:46:24;101016.72;;;3.49;100.00
57948;BME280;43754;56.992;24.292;2023-02-17T10:48:58;101003.38;;;3.50;100.00
57948;BME280;43754;56.992;24.292;2023-02-17T10:51:31;100994.31;;;3.53;100.00
57948;BME280;43754;56.992;24.292;2023-02-17T10:54:06;100990.53;;;3.55;100.00
57948;BME280;43754;56.992;24.292;2023-02-17T10:56:46;100983.59;;;3.54;100.00
57948;BME280;43754;56.992;24.292;2023-02-17T10:59:23;100976.97;;;3.49;100.00
57948;BME280;43754;56.992;24.292;2023-02-17T11:02:13;100971.56;;;3.50;100.00
57948;BME280;43754;56.992;24.292;2023-02-17T11:04:48;100963.81;;;3.58;100.00
57948;BME280;43754;56.992;24.292;2023-02-17T11:07:25;100954.75;;;3.61;100.00
57948;BME280;43754;56.992;24.292;2023-02-17T11:10:18;100958.31;;;3.71;100.00
57948;BME280;43754;56.992;24.292;2023-02-17T11:12:51;100955.00;;;3.79;100.00
57948;BME280;43754;56.992;24.292;2023-02-17T11:15:26;100944.50;;;3.77;100.00
57948;BME280;43754;56.992;24.292;2023-02-17T11:18:08;100948.47;;;3.83;100.00
57948;BME280;43754;56.992;24.292;2023-02-17T11:20:41;100954.72;;;3.82;100.00
57948;BME280;43754;56.992;24.292;2023-02-17T11:23:22;100946.25;;;3.88;100.00
57948;BME280;43754;56.992;24.292;2023-02-17T11:25:57;100958.09;;;3.84;100.00
57948;BME280;43754;56.992;24.292;2023-02-17T11:28:29;100954.72;;;3.82;100.00
57948;BME280;43754;56.992;24.292;2023-02-17T11:31:02;100944.66;;;3.76;100.00
57948;BME280;43754;56.992;24.292;2023-02-17T11:33:38;100939.59;;;3.72;100.00
57948;BME280;43754;56.992;24.292;2023-02-17T11:36:22;100929.00;;;3.72;100.00
57948;BME280;43754;56.992;24.292;2023-02-17T11:38:55;100926.72;;;3.68;100.00
57948;BME280;43754;56.992;24.292;2023-02-17T11:41:37;100931.47;;;3.64;100.00
57948;BME280;43754;56.992;24.292;2023-02-17T11:44:10;100924.47;;;3.63;100.00
57948;BME280;43754;56.992;24.292;2023-02-17T11:46:46;100912.91;;;3.64;100.00
57948;BME280;43754;56.992;24.292;2023-02-17T11:49:45;100912.63;;;3.67;100.00
57948;BME280;43754;56.992;24.292;2023-02-17T11:52:47;100916.69;;;3.71;100.00
57948;BME280;43754;56.992;24.292;2023-02-17T11:55:29;100909.75;;;3.70;100.00
57948;BME280;43754;56.992;24.292;2023-02-17T11:58:17;100901.78;;;3.70;100.00
57948;BME280;43754;56.992;24.292;2023-02-17T12:00:56;100899.53;;;3.66;100.00
57948;BME280;43754;56.992;24.292;2023-02-17T12:03:42;100889.94;;;3.75;100.00
57948;BME280;43754;56.992;24.292;2023-02-17T12:06:29;100887.13;;;3.66;100.00
57948;BME280;43754;56.992;24.292;2023-02-17T12:09:12;100866.44;;;3.60;100.00
57948;BME280;43754;56.992;24.292;2023-02-17T12:11:54;100868.81;;;3.63;100.00
57948;BME280;43754;56.992;24.292;2023-02-17T12:14:52;100869.41;;;3.67;100.00
57948;BME280;43754;56.992;24.292;2023-02-17T12:17:37;100869.97;;;3.70;100.00
57948;BME280;43754;56.992;24.292;2023-02-17T12:20:35;100864.94;;;3.67;100.00
57948;BME280;43754;56.992;24.292;2023-02-17T12:23:23;100848.34;;;3.65;100.00
57948;BME280;43754;56.992;24.292;2023-02-17T12:26:04;100848.84;;;3.59;100.00
57948;BME280;43754;56.992;24.292;2023-02-17T12:28:51;100836.31;;;3.61;100.00
57948;BME280;43754;56.992;24.292;2023-02-17T12:31:40;100832.31;;;3.67;100.00
57948;BME280;43754;56.992;24.292;2023-02-17T12:34:20;100828.81;;;3.66;100.00
57948;BME280;43754;56.992;24.292;2023-02-17T12:36:58;100828.75;;;3.57;100.00
57948;BME280;43754;56.992;24.292;2023-02-17T12:39:38;100819.84;;;3.58;100.00
57948;BME280;43754;56.992;24.292;2023-02-17T12:42:17;100819.84;;;3.58;100.00
57948;BME280;43754;56.992;24.292;2023-02-17T12:44:55;100805.88;;;3.56;100.00
57948;BME280;43754;56.992;24.292;2023-02-17T12:47:31;100815.38;;;3.58;100.00
57948;BME280;43754;56.992;24.292;2023-02-17T12:50:14;100819.41;;;3.53;100.00
57948;BME280;43754;56.992;24.292;2023-02-17T12:52:50;100815.34;;;3.49;100.00
57948;BME280;43754;56.992;24.292;2023-02-17T12:55:29;100815.47;;;3.47;100.00
57948;BME280;43754;56.992;24.292;2023-02-17T12:58:07;100816.56;;;3.45;100.00
57948;BME280;43754;56.992;24.292;2023-02-17T13:00:43;100796.06;;;3.47;100.00
57948;BME280;43754;56.992;24.292;2023-02-17T13:03:17;100772.91;;;3.39;100.00
57948;BME280;43754;56.992;24.292;2023-02-17T13:05:55;100752.50;;;3.30;100.00
57948;BME280;43754;56.992;24.292;2023-02-17T13:08:35;100750.84;;;3.29;100.00
57948;BME280;43754;56.992;24.292;2023-02-17T13:11:12;100743.00;;;3.28;100.00
57948;BME280;43754;56.992;24.292;2023-02-17T13:13:45;100743.69;;;3.20;100.00
57948;BME280;43754;56.992;24.292;2023-02-17T13:16:17;100741.88;;;3.20;100.00
57948;BME280;43754;56.992;24.292;2023-02-17T13:18:50;100744.13;;;3.25;100.00
57948;BME280;43754;56.992;24.292;2023-02-17T13:21:26;100732.53;;;3.26;100.00
57948;BME280;43754;56.992;24.292;2023-02-17T13:24:04;100719.56;;;3.23;100.00
57948;BME280;43754;56.992;24.292;2023-02-17T13:26:43;100697.28;;;3.26;100.00